createdAt,value
2022-08-10T00:01:54.842Z,3.03
2022-08-10T00:06:56.224Z,2.60
2022-08-10T00:11:57.490Z,2.60
2022-08-10T00:16:58.756Z,2.60
2022-08-10T00:22:00.058Z,2.80
2022-08-10T00:27:57.958Z,2.47
2022-08-10T00:32:22.946Z,2.67
2022-08-10T00:37:24.217Z,2.40
2022-08-10T00:42:25.493Z,2.47
2022-08-10T00:47:37.467Z,2.50
2022-08-10T00:52:39.248Z,2.33
2022-08-10T00:57:40.705Z,2.80
2022-08-10T01:02:42.020Z,2.58
2022-08-10T01:07:49.551Z,2.63
2022-08-10T01:13:01.087Z,2.50
2022-08-10T01:18:02.329Z,2.65
2022-08-10T01:23:03.735Z,2.47
2022-08-10T01:28:17.323Z,2.80
2022-08-10T01:33:31.901Z,2.50
2022-08-10T01:38:45.795Z,2.60
2022-08-10T01:43:53.632Z,2.90
2022-08-10T01:48:56.061Z,2.80
2022-08-10T01:54:02.258Z,2.70
2022-08-10T01:59:09.243Z,2.58
2022-08-10T02:04:11.941Z,2.70
2022-08-10T02:09:15.257Z,2.63
2022-08-10T02:14:18.044Z,3.08
2022-08-10T02:19:21.894Z,2.67
2022-08-10T02:24:24.545Z,2.80
2022-08-10T02:29:29.132Z,2.60
2022-08-10T02:34:30.802Z,2.53
2022-08-10T02:39:35.030Z,2.77
2022-08-10T02:45:23.257Z,2.67
2022-08-10T02:50:13.340Z,3.15
2022-08-10T02:55:33.528Z,3.23
2022-08-10T03:00:43.761Z,2.70
2022-08-10T03:05:46.740Z,2.88
2022-08-10T03:10:49.321Z,2.93
2022-08-10T03:15:51.322Z,3.03
2022-08-10T03:20:53.205Z,3.20
2022-08-10T03:25:55.991Z,2.70
2022-08-10T03:30:58.281Z,3.10
2022-08-10T03:36:42.732Z,2.97
2022-08-10T03:41:29.666Z,3.20
2022-08-10T03:46:31.758Z,2.90
2022-08-10T03:51:34.309Z,3.15
2022-08-10T03:56:36.810Z,3.03
2022-08-10T04:02:46.746Z,3.00
2022-08-10T04:07:00.039Z,3.33
2022-08-10T04:12:01.828Z,3.10
2022-08-10T04:17:03.117Z,3.20
2022-08-10T04:22:06.909Z,3.40
2022-08-10T04:27:08.638Z,3.13
2022-08-10T04:32:10.543Z,3.55
2022-08-10T04:37:12.944Z,3.30
2022-08-10T04:42:14.636Z,3.25
2022-08-10T04:47:16.937Z,3.15
2022-08-10T04:52:37.412Z,3.57
2022-08-10T04:57:38.695Z,3.60
2022-08-10T05:02:40.175Z,3.15
2022-08-10T05:07:50.356Z,3.37
2022-08-10T05:12:56.232Z,3.90
2022-08-10T05:18:08.241Z,3.80
2022-08-10T05:23:10.596Z,3.70
2022-08-10T05:28:11.861Z,3.77
2022-08-10T05:33:13.133Z,3.63
2022-08-10T05:38:15.265Z,3.53
2022-08-10T05:43:17.844Z,3.20
2022-08-10T05:48:57.298Z,3.50
2022-08-10T05:54:02.249Z,3.63
2022-08-10T05:59:02.040Z,4.10
2022-08-10T06:04:04.009Z,3.80
2022-08-10T06:09:06.199Z,3.70
2022-08-10T06:14:28.539Z,3.50
2022-08-10T06:19:30.821Z,3.07
2022-08-10T06:24:36.257Z,2.42
2022-08-10T06:29:40.613Z,2.40
2022-08-10T06:34:43.225Z,2.40
2022-08-10T06:39:45.083Z,2.55
2022-08-10T06:44:53.546Z,2.20
2022-08-10T06:49:59.907Z,2.63
2022-08-10T06:55:05.513Z,2.47
2022-08-10T07:00:10.265Z,2.35
2022-08-10T07:05:16.935Z,2.45
2022-08-10T07:10:22.541Z,2.40
2022-08-10T07:15:25.222Z,2.88
2022-08-10T07:20:46.941Z,2.60
2022-08-10T07:25:49.270Z,2.97
2022-08-10T07:30:53.094Z,2.83
2022-08-10T07:35:55.678Z,2.60
2022-08-10T07:40:58.473Z,2.73
2022-08-10T07:46:00.619Z,2.80
2022-08-10T07:51:05.301Z,3.00
2022-08-10T07:56:16.838Z,2.75
2022-08-10T08:01:29.028Z,3.00
2022-08-10T08:06:32.586Z,2.85
2022-08-10T08:11:34.577Z,2.80
2022-08-10T08:16:41.488Z,2.50
2022-08-10T08:24:05.991Z,3.20
2022-08-10T08:27:05.673Z,2.95
2022-08-10T08:32:07.147Z,2.80
2022-08-10T08:37:09.706Z,2.53
2022-08-10T08:42:29.774Z,3.00
2022-08-10T08:48:03.234Z,2.85
2022-08-10T08:53:21.918Z,2.60
2022-08-10T08:58:32.678Z,2.50
2022-08-10T09:03:33.977Z,2.50
2022-08-10T09:08:58.606Z,2.20
2022-08-10T09:14:08.715Z,2.45
2022-08-10T09:19:19.671Z,2.42
2022-08-10T09:24:46.070Z,2.27
2022-08-10T09:29:53.613Z,2.30
2022-08-10T09:36:20.167Z,2.47
2022-08-10T09:40:59.814Z,2.30
2022-08-10T09:46:12.111Z,2.80
2022-08-10T09:56:35.664Z,2.17
2022-08-10T10:02:02.705Z,2.20
2022-08-10T10:07:05.986Z,2.15
2022-08-10T10:12:26.196Z,2.17
2022-08-10T10:17:34.164Z,2.07
2022-08-10T10:22:41.885Z,2.27
2022-08-10T10:27:49.062Z,2.60
2022-08-10T10:33:13.239Z,2.20
2022-08-10T10:38:16.668Z,2.20
2022-08-10T10:43:33.300Z,2.10
2022-08-10T10:48:42.146Z,2.17
2022-08-10T10:53:47.054Z,1.97
2022-08-10T10:58:48.425Z,2.00
2022-08-10T11:04:12.754Z,2.10
2022-08-10T11:10:05.262Z,1.80
2022-08-10T11:14:48.278Z,2.10
2022-08-10T11:20:04.159Z,2.38
2022-08-10T11:25:14.739Z,2.35
2022-08-10T11:30:20.745Z,1.80
2022-08-10T11:35:40.634Z,2.05
2022-08-10T11:40:50.557Z,2.00
2022-08-10T11:45:55.589Z,1.80
2022-08-10T11:51:01.304Z,1.75
2022-08-10T11:56:09.779Z,2.10
2022-08-10T12:01:14.085Z,1.97
2022-08-10T12:06:39.236Z,1.90
2022-08-10T12:11:41.609Z,1.63
2022-08-10T12:16:46.902Z,1.70
2022-08-10T12:21:51.921Z,1.90
2022-08-10T12:26:53.181Z,1.65
2022-08-10T12:32:06.712Z,1.98
2022-08-10T12:37:26.868Z,2.00
2022-08-10T12:42:40.642Z,2.10
2022-08-10T12:47:42.337Z,2.00
2022-08-10T12:53:06.822Z,2.00
2022-08-10T12:58:57.873Z,1.80
2022-08-10T13:04:20.532Z,2.08
2022-08-10T13:09:09.100Z,1.92
2022-08-10T13:14:13.553Z,1.80
2022-08-10T13:19:16.568Z,1.90
2022-08-10T13:24:20.234Z,2.08
2022-08-10T13:29:24.514Z,2.03
2022-08-10T13:34:40.217Z,2.03
2022-08-10T13:39:59.150Z,2.00
2022-08-10T13:45:14.582Z,1.80
2022-08-10T13:50:34.514Z,1.90
2022-08-10T13:55:53.335Z,2.20
2022-08-10T14:00:58.405Z,1.90
2022-08-10T14:06:00.492Z,1.87
2022-08-10T14:11:09.631Z,2.05
2022-08-10T14:16:14.049Z,2.33
2022-08-10T14:21:15.511Z,2.20
2022-08-10T14:26:35.117Z,2.10
2022-08-10T14:31:37.517Z,2.10
2022-08-10T14:36:50.781Z,2.00
2022-08-10T14:42:03.398Z,2.20
2022-08-10T14:47:53.245Z,2.00
2022-08-10T14:52:30.902Z,1.90
2022-08-10T14:58:17.289Z,2.03
2022-08-10T15:02:58.363Z,2.20
2022-08-10T15:08:02.770Z,1.98
2022-08-10T15:13:07.640Z,2.10
2022-08-10T15:18:30.801Z,1.83
2022-08-10T15:24:04.346Z,2.20
2022-08-10T15:29:24.426Z,2.00
2022-08-10T15:34:39.865Z,2.13
2022-08-10T15:40:25.444Z,2.00
2022-08-10T15:45:18.413Z,2.10
2022-08-10T15:50:23.179Z,1.80
2022-08-10T15:55:43.068Z,2.00
2022-08-10T16:01:00.436Z,1.88
2022-08-10T16:06:03.354Z,1.97
2022-08-10T16:11:08.088Z,2.22
2022-08-10T16:16:11.279Z,2.10
2022-08-10T16:21:22.276Z,2.00
2022-08-10T16:26:25.291Z,2.10
2022-08-10T16:31:30.441Z,2.15
2022-08-10T16:36:39.864Z,2.13
2022-08-10T16:42:03.978Z,1.90
2022-08-10T16:47:03.530Z,2.25
2022-08-10T16:52:05.513Z,1.67
2022-08-10T16:57:07.253Z,1.80
2022-08-10T17:02:11.290Z,2.00
2022-08-10T17:07:14.565Z,1.90
2022-08-10T17:12:17.302Z,2.30
2022-08-10T17:17:20.351Z,2.00
2022-08-10T17:22:22.910Z,2.28
2022-08-10T17:28:04.882Z,2.05
2022-08-10T17:32:51.299Z,2.10
2022-08-10T17:38:02.134Z,1.85
2022-08-10T17:43:03.491Z,2.00
2022-08-10T17:48:05.926Z,2.13
2022-08-10T17:53:13.236Z,1.90
2022-08-10T17:58:18.052Z,2.08
2022-08-10T18:03:26.979Z,2.03
2022-08-10T18:08:29.659Z,1.95
2022-08-10T18:13:55.969Z,2.17
2022-08-10T18:18:55.496Z,2.40
2022-08-10T18:24:06.546Z,2.43
2022-08-10T18:29:18.873Z,2.00
2022-08-10T18:34:21.810Z,2.47
2022-08-10T18:39:27.647Z,2.30
2022-08-10T18:44:33.631Z,2.50
2022-08-10T18:49:38.135Z,2.47
2022-08-10T18:54:47.471Z,2.40
2022-08-10T19:00:03.918Z,2.40
2022-08-10T19:05:30.239Z,2.35
2022-08-10T19:10:34.479Z,2.87
2022-08-10T19:15:57.008Z,2.63
2022-08-10T19:21:15.544Z,2.80
2022-08-10T19:26:41.666Z,3.58
2022-08-10T19:31:49.296Z,3.40
2022-08-10T19:36:50.568Z,3.00
2022-08-10T19:42:11.227Z,3.33
2022-08-10T19:47:32.180Z,2.97
2022-08-10T19:52:49.379Z,3.10
2022-08-10T19:58:05.327Z,3.72
2022-08-10T20:03:16.809Z,2.97
2022-08-10T20:08:25.091Z,2.93
2022-08-10T20:13:47.420Z,2.60
2022-08-10T20:18:51.415Z,2.90
2022-08-10T20:23:55.557Z,2.30
2022-08-10T20:29:09.713Z,2.67
2022-08-10T20:34:21.756Z,2.58
2022-08-10T20:39:42.331Z,3.07
2022-08-10T20:44:55.607Z,2.58
2022-08-10T20:50:15.884Z,2.72
2022-08-10T20:55:17.905Z,2.83
2022-08-10T21:00:22.919Z,2.97
2022-08-10T21:05:27.634Z,2.38
2022-08-10T21:10:43.644Z,2.90
2022-08-10T21:15:44.911Z,2.60
2022-08-10T21:20:54.079Z,2.40
2022-08-10T21:26:07.338Z,2.40
2022-08-10T21:31:22.140Z,2.77
2022-08-10T21:36:26.721Z,2.70
2022-08-10T21:41:57.135Z,2.60
2022-08-10T21:47:39.417Z,2.63
2022-08-10T21:53:04.557Z,2.60
2022-08-10T21:58:30.169Z,2.50
2022-08-10T22:03:50.063Z,2.47
2022-08-10T22:09:22.435Z,2.70
2022-08-10T22:14:44.415Z,2.40
2022-08-10T22:20:06.803Z,2.25
2022-08-10T22:25:45.491Z,2.23
2022-08-10T22:31:32.135Z,2.40
2022-08-10T22:37:04.948Z,2.50
2022-08-10T22:42:57.963Z,2.50
2022-08-10T22:48:18.062Z,2.40
2022-08-10T22:53:23.028Z,2.17
2022-08-10T22:58:39.812Z,2.40
2022-08-10T23:03:47.924Z,2.47
2022-08-10T23:09:01.248Z,2.45
2022-08-10T23:14:04.030Z,2.20
2022-08-10T23:19:25.469Z,2.20
2022-08-10T23:24:31.914Z,2.53
2022-08-10T23:29:35.436Z,2.63
2022-08-10T23:34:44.191Z,2.27
2022-08-10T23:39:48.260Z,2.37
2022-08-10T23:44:51.616Z,2.30
2022-08-10T23:49:55.526Z,2.20
2022-08-10T23:54:57.878Z,2.30
